createdAt,value
2023-07-02T00:01:33.505Z,83.80
2023-07-02T00:04:02.574Z,83.90
2023-07-02T00:06:34.051Z,84.30
2023-07-02T00:09:03.124Z,84.60
2023-07-02T00:11:32.161Z,84.80
2023-07-02T00:14:01.215Z,85.20
2023-07-02T00:16:31.599Z,85.60
2023-07-02T00:19:01.249Z,86.10
2023-07-02T00:21:30.455Z,86.70
2023-07-02T00:24:00.051Z,87.10
2023-07-02T00:26:29.590Z,87.40
2023-07-02T00:28:59.433Z,87.90
2023-07-02T00:31:30.579Z,88.10
2023-07-02T00:33:59.731Z,88.30
2023-07-02T00:36:28.620Z,88.60
2023-07-02T00:38:57.864Z,88.60
2023-07-02T00:41:27.342Z,88.60
2023-07-02T00:43:56.780Z,88.70
2023-07-02T00:46:27.505Z,88.80
2023-07-02T00:48:58.898Z,88.60
2023-07-02T00:51:29.756Z,88.50
2023-07-02T00:54:17.915Z,88.70
2023-07-02T00:56:47.373Z,88.80
2023-07-02T00:59:37.019Z,88.90
2023-07-02T01:02:06.480Z,89.00
2023-07-02T01:04:38.605Z,89.00
2023-07-02T01:07:11.098Z,89.00
2023-07-02T01:09:40.476Z,88.90
2023-07-02T01:12:12.643Z,88.90
2023-07-02T01:14:46.453Z,89.00
2023-07-02T01:17:20.573Z,89.10
2023-07-02T01:20:11.951Z,89.20
2023-07-02T01:22:41.093Z,89.40
2023-07-02T01:25:11.069Z,89.30
2023-07-02T01:27:40.406Z,89.40
2023-07-02T01:30:12.183Z,89.60
2023-07-02T01:32:41.768Z,89.50
2023-07-02T01:35:12.782Z,89.50
2023-07-02T01:37:41.762Z,89.60
2023-07-02T01:40:11.318Z,89.70
2023-07-02T01:42:40.604Z,89.80
2023-07-02T01:45:10.601Z,90.00
2023-07-02T01:47:39.727Z,90.00
2023-07-02T01:50:09.638Z,90.00
2023-07-02T01:52:40.238Z,90.00
2023-07-02T01:55:10.041Z,90.10
2023-07-02T01:57:39.055Z,90.10
2023-07-02T02:00:10.560Z,90.20
2023-07-02T02:02:45.774Z,90.30
2023-07-02T02:05:14.895Z,90.20
2023-07-02T02:07:45.181Z,90.10
2023-07-02T02:10:16.273Z,90.20
2023-07-02T02:12:45.406Z,90.20
2023-07-02T02:15:15.582Z,90.30
2023-07-02T02:17:44.637Z,90.40
2023-07-02T02:20:32.025Z,90.50
2023-07-02T02:23:02.472Z,90.50
2023-07-02T02:25:31.628Z,90.50
2023-07-02T02:28:00.540Z,90.60
2023-07-02T02:30:29.523Z,90.60
2023-07-02T02:32:58.760Z,90.60
2023-07-02T02:35:28.892Z,90.60
2023-07-02T02:37:57.825Z,90.60
2023-07-02T02:40:28.496Z,90.60
2023-07-02T02:42:57.500Z,90.50
2023-07-02T02:45:26.791Z,90.50
2023-07-02T02:47:55.809Z,90.50
2023-07-02T02:50:25.291Z,90.60
2023-07-02T02:52:54.329Z,90.60
2023-07-02T02:55:23.459Z,90.50
2023-07-02T02:57:53.763Z,90.40
2023-07-02T03:00:22.740Z,90.40
2023-07-02T03:02:51.611Z,90.30
2023-07-02T03:05:20.621Z,90.30
2023-07-02T03:07:49.695Z,90.30
2023-07-02T03:10:18.725Z,90.50
2023-07-02T03:12:47.684Z,90.70
2023-07-02T03:15:18.930Z,90.80
2023-07-02T03:17:48.113Z,90.90
2023-07-02T03:20:18.061Z,91.10
2023-07-02T03:22:47.026Z,91.20
2023-07-02T03:25:34.356Z,91.40
2023-07-02T03:28:03.282Z,91.50
2023-07-02T03:30:33.898Z,91.60
2023-07-02T03:33:02.969Z,91.70
2023-07-02T03:35:31.878Z,91.70
2023-07-02T03:38:00.751Z,91.70
2023-07-02T03:40:29.770Z,91.80
2023-07-02T03:42:58.713Z,92.00
2023-07-02T03:45:27.532Z,92.10
2023-07-02T03:47:58.080Z,92.20
2023-07-02T03:50:27.085Z,92.20
2023-07-02T03:52:56.123Z,92.00
2023-07-02T03:55:25.325Z,91.90
2023-07-02T03:57:54.323Z,91.90
2023-07-02T04:00:23.395Z,92.00
2023-07-02T04:02:53.637Z,92.00
2023-07-02T04:05:24.188Z,92.00
2023-07-02T04:07:53.282Z,92.00
2023-07-02T04:10:22.291Z,92.00
2023-07-02T04:12:51.147Z,92.10
2023-07-02T04:15:20.145Z,92.10
2023-07-02T04:17:49.082Z,91.90
2023-07-02T04:20:20.184Z,91.80
2023-07-02T04:22:50.862Z,91.80
2023-07-02T04:25:25.617Z,91.80
2023-07-02T04:27:59.980Z,91.70
2023-07-02T04:30:29.141Z,91.60
2023-07-02T04:32:59.040Z,91.60
2023-07-02T04:35:27.855Z,91.70
2023-07-02T04:37:58.698Z,91.70
2023-07-02T04:40:27.704Z,91.70
2023-07-02T04:42:59.044Z,91.60
2023-07-02T04:45:37.661Z,91.50
2023-07-02T04:48:07.055Z,91.40
2023-07-02T04:50:35.918Z,91.10
2023-07-02T04:53:06.294Z,91.00
2023-07-02T04:55:35.358Z,90.90
2023-07-02T04:58:04.263Z,90.80
2023-07-02T05:00:33.140Z,90.80
2023-07-02T05:03:02.224Z,90.70
2023-07-02T05:05:31.331Z,90.60
2023-07-02T05:08:00.379Z,90.50
2023-07-02T05:10:30.795Z,90.40
2023-07-02T05:13:18.224Z,90.30
2023-07-02T05:15:47.560Z,90.10
2023-07-02T05:18:16.619Z,90.00
2023-07-02T05:20:45.705Z,89.80
2023-07-02T05:23:15.083Z,89.70
2023-07-02T05:25:47.285Z,89.50
2023-07-02T05:28:16.432Z,89.20
2023-07-02T05:30:45.754Z,89.10
2023-07-02T05:33:15.063Z,89.10
2023-07-02T05:35:47.586Z,89.00
2023-07-02T05:38:16.962Z,88.70
2023-07-02T05:41:06.479Z,88.70
2023-07-02T05:43:35.400Z,88.60
2023-07-02T05:46:04.407Z,88.30
2023-07-02T05:48:33.260Z,88.00
2023-07-02T05:51:02.084Z,87.70
2023-07-02T05:53:31.193Z,87.10
2023-07-02T05:56:00.714Z,86.60
2023-07-02T05:58:42.950Z,86.30
2023-07-02T06:01:16.459Z,86.00
2023-07-02T06:03:46.948Z,85.50
2023-07-02T06:06:16.083Z,85.40
2023-07-02T06:08:45.061Z,85.30
2023-07-02T06:11:15.012Z,85.20
2023-07-02T06:13:45.336Z,85.10
2023-07-02T06:16:14.575Z,84.70
2023-07-02T06:18:43.610Z,84.40
2023-07-02T06:21:12.650Z,84.40
2023-07-02T06:23:45.546Z,84.30
2023-07-02T06:26:14.724Z,83.90
2023-07-02T06:28:45.158Z,83.70
2023-07-02T06:31:14.808Z,83.20
2023-07-02T06:33:43.897Z,83.00
2023-07-02T06:36:16.161Z,83.00
2023-07-02T06:38:56.225Z,82.70
2023-07-02T06:41:26.340Z,82.20
2023-07-02T06:43:56.985Z,81.90
2023-07-02T06:46:26.364Z,81.90
2023-07-02T06:48:55.369Z,81.60
2023-07-02T06:51:32.772Z,81.20
2023-07-02T06:54:05.785Z,80.60
2023-07-02T06:56:35.461Z,80.90
2023-07-02T06:59:24.687Z,79.80
2023-07-02T07:01:53.834Z,79.50
2023-07-02T07:04:23.408Z,78.70
2023-07-02T07:06:52.416Z,78.20
2023-07-02T07:09:21.339Z,77.50
2023-07-02T07:11:50.276Z,77.60
2023-07-02T07:14:19.320Z,77.10
2023-07-02T07:16:50.109Z,76.00
2023-07-02T07:19:19.600Z,75.60
2023-07-02T07:21:48.504Z,73.70
2023-07-02T07:24:17.463Z,72.60
2023-07-02T07:26:46.381Z,71.40
2023-07-02T07:29:15.248Z,70.30
2023-07-02T07:31:44.962Z,68.90
2023-07-02T07:34:15.524Z,67.10
2023-07-02T07:36:44.610Z,66.70
2023-07-02T07:39:13.441Z,65.30
2023-07-02T07:41:49.546Z,64.80
2023-07-02T07:44:18.546Z,63.70
2023-07-02T07:46:47.587Z,62.70
2023-07-02T07:49:18.893Z,61.20
2023-07-02T07:51:48.254Z,60.70
2023-07-02T07:54:17.290Z,59.20
2023-07-02T07:56:48.939Z,57.20
2023-07-02T07:59:18.095Z,56.50
2023-07-02T08:01:47.969Z,56.90
2023-07-02T08:04:21.440Z,55.60
2023-07-02T08:06:52.149Z,55.00
2023-07-02T08:09:22.264Z,55.20
2023-07-02T08:11:51.205Z,54.90
2023-07-02T08:14:20.511Z,54.00
2023-07-02T08:17:08.159Z,53.30
2023-07-02T08:19:38.500Z,53.00
2023-07-02T08:22:07.969Z,52.00
2023-07-02T08:24:37.076Z,52.00
2023-07-02T08:27:06.661Z,51.70
2023-07-02T08:29:53.984Z,51.20
2023-07-02T08:32:23.023Z,50.70
2023-07-02T08:34:53.863Z,50.30
2023-07-02T08:37:23.986Z,50.10
2023-07-02T08:39:54.066Z,49.60
2023-07-02T08:42:23.610Z,49.50
2023-07-02T08:44:58.675Z,48.80
2023-07-02T08:47:28.866Z,48.20
2023-07-02T08:49:59.549Z,48.10
2023-07-02T08:52:28.616Z,47.90
2023-07-02T08:54:57.589Z,48.70
2023-07-02T08:57:26.543Z,47.50
2023-07-02T08:59:55.540Z,46.90
2023-07-02T09:02:33.991Z,47.10
2023-07-02T09:05:05.343Z,46.30
2023-07-02T09:07:54.935Z,45.70
2023-07-02T09:10:32.588Z,45.10
2023-07-02T09:13:16.604Z,45.70
2023-07-02T09:15:46.310Z,45.60
2023-07-02T09:18:22.348Z,44.70
2023-07-02T09:20:57.045Z,44.40
2023-07-02T09:23:36.973Z,44.50
2023-07-02T09:26:06.500Z,44.50
2023-07-02T09:28:35.598Z,43.90
2023-07-02T09:31:04.529Z,43.50
2023-07-02T09:33:34.105Z,43.40
2023-07-02T09:36:05.878Z,43.30
2023-07-02T09:38:35.342Z,43.10
2023-07-02T09:41:06.189Z,43.40
2023-07-02T09:43:35.545Z,42.80
2023-07-02T09:46:06.188Z,42.30
2023-07-02T09:48:38.185Z,42.70
2023-07-02T09:51:08.955Z,42.90
2023-07-02T09:53:37.992Z,43.40
2023-07-02T09:56:09.945Z,43.80
2023-07-02T09:58:39.053Z,44.20
2023-07-02T10:01:08.037Z,43.80
2023-07-02T10:03:38.935Z,43.40
2023-07-02T10:06:10.186Z,43.00
2023-07-02T10:08:39.539Z,42.80
2023-07-02T10:11:12.720Z,42.40
2023-07-02T10:13:42.860Z,42.20
2023-07-02T10:16:11.837Z,41.70
2023-07-02T10:18:42.489Z,41.20
2023-07-02T10:21:20.073Z,40.80
2023-07-02T10:23:49.314Z,40.80
2023-07-02T10:26:20.014Z,40.90
2023-07-02T10:29:03.875Z,41.10
2023-07-02T10:31:33.064Z,40.50
2023-07-02T10:34:02.022Z,40.40
2023-07-02T10:36:32.457Z,40.50
2023-07-02T10:39:19.753Z,40.70
2023-07-02T10:41:48.823Z,39.90
2023-07-02T10:44:18.975Z,39.80
2023-07-02T10:46:48.746Z,40.20
2023-07-02T10:49:20.474Z,40.00
2023-07-02T10:52:01.328Z,39.10
2023-07-02T10:54:43.509Z,39.10
2023-07-02T10:57:13.485Z,39.30
2023-07-02T10:59:42.593Z,39.90
2023-07-02T11:02:11.977Z,40.30
2023-07-02T11:04:41.225Z,39.10
2023-07-02T11:07:13.452Z,38.90
2023-07-02T11:09:42.520Z,38.90
2023-07-02T11:12:11.547Z,38.80
2023-07-02T11:14:42.520Z,38.60
2023-07-02T11:17:11.990Z,37.90
2023-07-02T11:19:41.054Z,38.40
2023-07-02T11:22:11.407Z,38.20
2023-07-02T11:24:40.776Z,38.10
2023-07-02T11:27:09.965Z,37.80
2023-07-02T11:29:39.928Z,37.40
2023-07-02T11:32:10.775Z,37.40
2023-07-02T11:34:40.755Z,37.90
2023-07-02T11:37:11.646Z,37.50
2023-07-02T11:39:40.706Z,37.10
2023-07-02T11:42:09.711Z,36.80
2023-07-02T11:44:38.728Z,37.50
2023-07-02T11:47:08.715Z,37.00
2023-07-02T11:49:37.702Z,36.90
2023-07-02T11:52:07.100Z,36.70
2023-07-02T11:54:39.667Z,37.00
2023-07-02T11:57:09.961Z,36.60
2023-07-02T11:59:57.566Z,36.80
2023-07-02T12:02:26.659Z,36.70
2023-07-02T12:04:55.913Z,36.60
2023-07-02T12:07:26.518Z,36.40
2023-07-02T12:09:57.492Z,36.00
2023-07-02T12:12:26.526Z,36.00
2023-07-02T12:14:55.502Z,36.30
2023-07-02T12:17:25.272Z,36.70
2023-07-02T12:19:54.317Z,36.20
2023-07-02T12:22:24.266Z,35.50
2023-07-02T12:24:55.014Z,35.70
2023-07-02T12:27:26.986Z,35.70
2023-07-02T12:29:56.097Z,35.60
2023-07-02T12:32:25.388Z,35.70
2023-07-02T12:34:54.542Z,36.20
2023-07-02T12:37:23.547Z,35.40
2023-07-02T12:39:52.444Z,35.30
2023-07-02T12:42:21.914Z,35.60
2023-07-02T12:44:53.138Z,35.20
2023-07-02T12:47:22.411Z,35.70
2023-07-02T12:49:51.917Z,35.80
2023-07-02T12:52:20.718Z,35.70
2023-07-02T12:54:49.892Z,35.40
2023-07-02T12:57:20.657Z,35.70
2023-07-02T12:59:49.864Z,36.00
2023-07-02T13:02:20.442Z,35.60
2023-07-02T13:04:49.851Z,35.30
2023-07-02T13:07:19.957Z,35.40
2023-07-02T13:09:49.343Z,35.00
2023-07-02T13:12:19.355Z,35.50
2023-07-02T13:14:48.457Z,35.90
2023-07-02T13:17:17.413Z,36.00
2023-07-02T13:19:47.964Z,35.90
2023-07-02T13:22:16.949Z,35.60
2023-07-02T13:24:45.965Z,35.80
2023-07-02T13:27:19.272Z,35.20
2023-07-02T13:29:48.267Z,35.30
2023-07-02T13:32:17.121Z,35.90
2023-07-02T13:34:47.496Z,36.40
2023-07-02T13:37:19.322Z,36.60
2023-07-02T13:39:48.730Z,36.60
2023-07-02T13:42:18.207Z,36.20
2023-07-02T13:44:47.180Z,36.50
2023-07-02T13:47:16.172Z,36.60
2023-07-02T13:49:46.463Z,36.40
2023-07-02T13:52:15.486Z,36.50
2023-07-02T13:54:44.420Z,36.30
2023-07-02T13:57:13.441Z,35.90
2023-07-02T13:59:43.915Z,36.30
2023-07-02T14:02:12.972Z,36.30
2023-07-02T14:04:42.191Z,37.30
2023-07-02T14:07:11.285Z,36.80
2023-07-02T14:09:40.425Z,36.90
2023-07-02T14:12:10.116Z,36.70
2023-07-02T14:14:40.064Z,36.80
2023-07-02T14:17:10.870Z,37.00
2023-07-02T14:19:39.883Z,37.20
2023-07-02T14:22:08.845Z,37.10
2023-07-02T14:24:37.975Z,36.80
2023-07-02T14:27:07.953Z,36.50
2023-07-02T14:29:37.442Z,36.80
2023-07-02T14:32:08.181Z,37.20
2023-07-02T14:34:39.373Z,37.80
2023-07-02T14:37:08.644Z,38.10
2023-07-02T14:39:37.840Z,38.40
2023-07-02T14:42:07.968Z,38.60
2023-07-02T14:44:55.649Z,38.70
2023-07-02T14:47:25.012Z,38.60
2023-07-02T14:50:15.584Z,39.20
2023-07-02T14:52:45.775Z,39.60
2023-07-02T14:55:14.980Z,39.60
2023-07-02T14:57:43.881Z,39.20
2023-07-02T15:00:14.274Z,38.80
2023-07-02T15:02:44.058Z,39.10
2023-07-02T15:05:14.844Z,39.30
2023-07-02T15:07:43.903Z,39.50
2023-07-02T15:10:13.433Z,39.50
2023-07-02T15:12:42.577Z,40.00
2023-07-02T15:15:11.742Z,40.60
2023-07-02T15:17:40.810Z,40.50
2023-07-02T15:20:10.490Z,40.30
2023-07-02T15:22:40.834Z,40.30
2023-07-02T15:25:11.382Z,40.50
2023-07-02T15:27:59.049Z,40.40
2023-07-02T15:30:28.089Z,40.00
2023-07-02T15:32:57.762Z,39.80
2023-07-02T15:35:26.779Z,39.60
2023-07-02T15:37:57.156Z,39.80
2023-07-02T15:40:27.761Z,40.00
2023-07-02T15:42:57.395Z,40.10
2023-07-02T15:45:26.391Z,40.10
2023-07-02T15:47:55.737Z,39.80
2023-07-02T15:50:25.134Z,40.00
2023-07-02T15:52:54.250Z,40.10
2023-07-02T15:55:25.209Z,40.10
2023-07-02T15:57:54.435Z,40.20
2023-07-02T16:00:23.964Z,40.10
2023-07-02T16:02:53.382Z,40.60
2023-07-02T16:05:22.845Z,41.00
2023-07-02T16:07:51.997Z,41.40
2023-07-02T16:10:21.289Z,41.30
2023-07-02T16:12:54.222Z,41.60
2023-07-02T16:15:23.541Z,42.10
2023-07-02T16:17:53.540Z,42.30
2023-07-02T16:20:23.004Z,42.80
2023-07-02T16:22:51.981Z,43.10
2023-07-02T16:25:22.095Z,43.40
2023-07-02T16:27:55.627Z,44.10
2023-07-02T16:30:26.878Z,44.00
2023-07-02T16:32:56.143Z,44.40
2023-07-02T16:35:25.385Z,44.50
2023-07-02T16:37:54.519Z,44.80
2023-07-02T16:40:23.716Z,45.00
2023-07-02T16:42:53.381Z,45.40
2023-07-02T16:45:24.070Z,46.00
2023-07-02T16:47:53.122Z,47.10
2023-07-02T16:50:22.055Z,47.40
2023-07-02T16:52:50.988Z,48.00
2023-07-02T16:55:20.927Z,48.40
2023-07-02T16:57:50.139Z,48.90
2023-07-02T17:00:20.025Z,48.80
2023-07-02T17:02:50.625Z,49.70
2023-07-02T17:05:20.103Z,48.90
2023-07-02T17:07:49.110Z,49.30
2023-07-02T17:10:18.488Z,49.70
2023-07-02T17:12:47.527Z,49.70
2023-07-02T17:15:17.191Z,50.10
2023-07-02T17:17:46.252Z,50.30
2023-07-02T17:20:17.343Z,50.20
2023-07-02T17:22:46.318Z,50.50
2023-07-02T17:25:15.481Z,50.90
2023-07-02T17:27:44.406Z,50.90
2023-07-02T17:30:15.717Z,50.30
2023-07-02T17:32:44.893Z,50.50
2023-07-02T17:35:16.161Z,51.20
2023-07-02T17:37:45.344Z,51.50
2023-07-02T17:40:14.726Z,51.00
2023-07-02T17:42:44.318Z,51.50
2023-07-02T17:45:15.021Z,51.60
2023-07-02T17:47:44.653Z,51.90
2023-07-02T17:50:19.480Z,52.20
2023-07-02T17:52:49.014Z,52.70
2023-07-02T17:55:18.295Z,53.30
2023-07-02T17:57:50.196Z,53.40
2023-07-02T18:00:19.670Z,53.90
2023-07-02T18:02:48.689Z,54.20
2023-07-02T18:05:21.882Z,54.20
2023-07-02T18:07:52.325Z,54.80
2023-07-02T18:10:21.564Z,55.40
2023-07-02T18:12:50.473Z,55.30
2023-07-02T18:15:19.614Z,55.50
2023-07-02T18:17:53.432Z,56.00
2023-07-02T18:20:24.187Z,56.60
2023-07-02T18:22:53.319Z,56.70
2023-07-02T18:25:22.242Z,57.60
2023-07-02T18:28:05.091Z,58.10
2023-07-02T18:30:34.240Z,58.70
2023-07-02T18:33:03.373Z,59.00
2023-07-02T18:35:35.743Z,59.50
2023-07-02T18:38:05.057Z,59.50
2023-07-02T18:40:34.289Z,60.00
2023-07-02T18:43:03.661Z,60.50
2023-07-02T18:45:33.080Z,60.90
2023-07-02T18:48:02.666Z,61.30
2023-07-02T18:50:34.770Z,61.50
2023-07-02T18:53:07.508Z,62.00
2023-07-02T18:55:36.909Z,62.30
2023-07-02T18:58:06.026Z,63.00
2023-07-02T19:00:38.408Z,63.60
2023-07-02T19:03:07.842Z,62.90
2023-07-02T19:05:38.476Z,62.90
2023-07-02T19:08:07.476Z,63.30
2023-07-02T19:10:38.473Z,63.40
2023-07-02T19:13:07.674Z,63.70
2023-07-02T19:15:36.751Z,64.00
2023-07-02T19:18:05.884Z,64.00
2023-07-02T19:20:34.824Z,64.00
2023-07-02T19:23:06.200Z,64.30
2023-07-02T19:25:35.387Z,64.50
2023-07-02T19:28:04.555Z,64.50
2023-07-02T19:30:33.770Z,64.70
2023-07-02T19:33:02.813Z,64.90
2023-07-02T19:35:32.220Z,64.90
2023-07-02T19:38:01.159Z,65.00
2023-07-02T19:40:31.802Z,65.10
2023-07-02T19:43:00.770Z,65.50
2023-07-02T19:45:29.729Z,66.00
2023-07-02T19:47:59.620Z,66.90
2023-07-02T19:50:29.159Z,66.90
2023-07-02T19:52:58.164Z,67.10
2023-07-02T19:55:27.240Z,67.00
2023-07-02T19:57:57.512Z,67.10
2023-07-02T20:00:26.753Z,67.50
2023-07-02T20:02:55.892Z,67.70
2023-07-02T20:05:24.930Z,67.90
2023-07-02T20:07:57.750Z,68.10
2023-07-02T20:10:26.792Z,68.10
2023-07-02T20:12:57.105Z,68.20
2023-07-02T20:15:29.407Z,68.30
2023-07-02T20:17:58.885Z,68.60
2023-07-02T20:20:32.329Z,68.70
2023-07-02T20:23:01.586Z,68.90
2023-07-02T20:25:49.383Z,68.90
2023-07-02T20:28:24.212Z,69.10
2023-07-02T20:30:53.466Z,69.30
2023-07-02T20:33:22.575Z,69.50
2023-07-02T20:35:52.565Z,69.70
2023-07-02T20:38:21.846Z,69.60
2023-07-02T20:41:02.507Z,69.50
2023-07-02T20:43:35.014Z,69.60
2023-07-02T20:46:05.581Z,69.90
2023-07-02T20:48:36.442Z,70.70
2023-07-02T20:51:05.718Z,70.10
2023-07-02T20:53:34.734Z,70.40
2023-07-02T20:56:03.894Z,70.70
2023-07-02T20:58:35.031Z,71.20
2023-07-02T21:01:04.839Z,71.30
2023-07-02T21:03:34.268Z,71.30
2023-07-02T21:06:07.559Z,71.60
2023-07-02T21:08:37.189Z,72.00
2023-07-02T21:11:16.446Z,72.20
2023-07-02T21:13:58.682Z,72.40
2023-07-02T21:16:28.046Z,72.20
2023-07-02T21:18:56.871Z,72.20
2023-07-02T21:21:25.977Z,72.00
2023-07-02T21:23:55.636Z,72.10
2023-07-02T21:26:24.693Z,72.00
2023-07-02T21:28:53.737Z,71.80
2023-07-02T21:31:24.282Z,71.60
2023-07-02T21:33:53.266Z,71.80
2023-07-02T21:36:22.278Z,72.10
2023-07-02T21:38:51.589Z,72.30
2023-07-02T21:41:39.035Z,72.60
2023-07-02T21:44:08.692Z,72.60
2023-07-02T21:46:39.373Z,72.70
2023-07-02T21:49:08.347Z,72.70
2023-07-02T21:51:37.203Z,72.50
2023-07-02T21:54:06.433Z,72.50
2023-07-02T21:56:35.263Z,72.40
2023-07-02T21:59:04.338Z,72.30
2023-07-02T22:01:33.364Z,72.40
2023-07-02T22:04:06.102Z,72.30
2023-07-02T22:06:53.795Z,72.00
2023-07-02T22:09:22.888Z,72.00
2023-07-02T22:11:51.993Z,71.90
2023-07-02T22:14:20.873Z,72.00
2023-07-02T22:16:49.903Z,72.10
2023-07-02T22:19:21.391Z,72.20
2023-07-02T22:21:50.665Z,72.30
2023-07-02T22:24:19.451Z,72.40
2023-07-02T22:26:48.538Z,72.40
2023-07-02T22:29:17.652Z,72.50
2023-07-02T22:31:46.621Z,72.80
2023-07-02T22:34:16.278Z,72.90
2023-07-02T22:36:47.178Z,73.00
2023-07-02T22:39:17.434Z,73.70
2023-07-02T22:41:46.423Z,73.00
2023-07-02T22:44:15.305Z,73.00
2023-07-02T22:46:44.386Z,72.90
2023-07-02T22:49:13.391Z,72.70
2023-07-02T22:51:42.960Z,72.60
2023-07-02T22:54:13.792Z,72.50
2023-07-02T22:56:42.705Z,72.70
2023-07-02T22:59:11.619Z,72.80
2023-07-02T23:01:40.596Z,72.80
2023-07-02T23:04:09.762Z,72.90
2023-07-02T23:06:39.603Z,72.90
2023-07-02T23:09:08.944Z,72.80
2023-07-02T23:11:39.377Z,72.60
2023-07-02T23:14:08.630Z,73.30
2023-07-02T23:16:37.760Z,73.00
2023-07-02T23:19:06.872Z,73.10
2023-07-02T23:21:36.302Z,73.20
2023-07-02T23:24:05.347Z,73.30
2023-07-02T23:26:35.962Z,73.50
2023-07-02T23:29:26.195Z,73.40
2023-07-02T23:31:55.190Z,73.50
2023-07-02T23:34:26.230Z,73.40
2023-07-02T23:36:55.315Z,73.60
2023-07-02T23:39:24.435Z,73.80
2023-07-02T23:41:53.542Z,74.30
2023-07-02T23:44:23.931Z,74.30
2023-07-02T23:46:53.035Z,74.30
2023-07-02T23:49:21.920Z,74.40
2023-07-02T23:51:50.765Z,74.60
2023-07-02T23:54:19.689Z,74.70
2023-07-02T23:56:48.695Z,74.80
2023-07-02T23:59:17.607Z,75.20
